Time;durP1;ratioP1;P1;durP2;ratioP2;P2;SDS_P1;SDS_P2;PMS_P1;PMS_P2;Temp;Humidity;BMP_temperature;BMP_pressure;BME280_temperature;BME280_humidity;BME280_pressure;Samples;Min_cycle;Max_cycle;Signal;HPM_P1;HPM_P2
2022/05/07 00:01:14;;;;;;;;;8.60;6.60;;;;;15.89;100.00;102090.00;4968918;28;45357;-84
2022/05/07 00:04:43;;;;;;;;;5.40;5.40;;;;;15.75;100.00;102074.00;4977952;28;44886;-85
2022/05/07 00:13:47;;;;;;;;;;;;;;;;;;;;;
2022/05/07 00:19:32;;;;;;;;;10.20;10.00;;;;;15.37;100.00;102074.69;4864112;29;45392;-83
2022/05/07 00:22:28;;;;;;;;;11.60;9.40;;;;;15.34;100.00;102063.34;4851542;29;45533;-84
2022/05/07 00:25:41;;;;;;;;;7.40;7.40;;;;;15.31;100.00;102072.41;4864410;29;45312;-82
2022/05/07 00:28:37;;;;;;;;;7.80;6.60;;;;;15.34;100.00;102066.00;4828512;29;45444;-83
2022/05/07 00:31:34;;;;;;;;;9.00;9.00;;;;;15.28;100.00;102069.06;4838240;29;47329;-84
2022/05/07 00:37:40;;;;;;;;;8.40;6.60;;;;;15.07;100.00;102082.03;4771081;29;45027;-84
2022/05/07 00:40:36;;;;;;;;;11.75;11.50;;;;;15.01;100.00;102067.25;4770842;29;45217;-85
2022/05/07 00:44:00;;;;;;;;;;;;;;;;;;;;;
2022/05/07 00:46:40;;;;;;;;;14.00;11.80;;;;;15.03;100.00;102067.13;4719267;29;45350;-82
2022/05/07 00:49:06;;;;;;;;;6.80;5.40;;;;;14.94;100.00;102067.72;4713134;30;45296;-83
2022/05/07 00:52:23;;;;;;;;;10.20;10.20;;;;;14.94;100.00;102063.25;4755369;29;45432;-83
2022/05/07 00:55:48;;;;;;;;;;;;;;;;;;;;;
2022/05/07 00:58:38;;;;;;;;;10.40;10.40;;;;;14.60;100.00;102068.06;4752143;29;72083;-82
2022/05/07 01:01:35;;;;;;;;;13.40;12.60;;;;;14.52;100.00;102053.44;4762094;29;45521;-84
2022/05/07 01:04:25;;;;;;;;;13.25;11.00;;;;;14.52;100.00;102058.78;4793206;29;45905;-83
2022/05/07 01:10:33;;;;;;;;;11.60;10.00;;;;;14.44;100.00;102053.88;4713150;30;44798;-84
2022/05/07 01:13:39;;;;;;;;;17.00;15.75;;;;;14.25;100.00;102064.84;4708610;30;45030;-83
2022/05/07 01:16:21;;;;;;;;;9.00;8.25;;;;;14.19;100.00;102057.22;4724490;30;45210;-82
2022/05/07 01:18:46;;;;;;;;;9.75;9.25;;;;;14.06;100.00;102058.91;4724097;30;45445;-82
2022/05/07 01:21:42;;;;;;;;;;;;;;;;;;;;;
2022/05/07 01:24:07;;;;;;;;;14.00;12.75;;;;;14.01;100.00;102066.34;4798240;29;68082;-84
2022/05/07 01:26:42;;;;;;;;;18.25;14.50;;;;;13.98;100.00;102054.03;4800770;29;45459;-82
2022/05/07 01:29:10;;;;;;;;;6.75;6.75;;;;;13.93;100.00;102056.13;4796640;29;45318;-83
2022/05/07 01:32:24;;;;;;;;;11.60;11.00;;;;;13.92;100.00;102064.22;4782701;29;45284;-83
2022/05/07 01:34:51;;;;;;;;;11.60;11.60;;;;;13.87;100.00;102061.81;4794039;29;44903;-83
2022/05/07 01:37:20;;;;;;;;;16.50;14.50;;;;;13.90;100.00;102058.97;4792636;29;44818;-83
2022/05/07 01:39:45;;;;;;;;;16.00;13.00;;;;;13.92;100.00;102046.38;4791670;29;46692;-82
2022/05/07 01:42:12;;;;;;;;;10.00;7.25;;;;;13.95;100.00;102054.19;4794120;29;45449;-83
2022/05/07 01:45:02;;;;;;;;;17.75;14.50;;;;;13.88;100.00;102072.44;4811490;29;44856;-83
2022/05/07 01:51:29;;;;;;;;;17.00;15.50;;;;;13.73;100.00;102054.63;4942237;28;44955;-82
2022/05/07 01:54:12;;;;;;;;;14.50;11.00;;;;;13.65;100.00;102046.22;4937050;28;45541;-83
2022/05/07 01:56:38;;;;;;;;;13.25;12.00;;;;;13.66;100.00;102047.91;4921791;28;44936;-82
2022/05/07 01:59:30;;;;;;;;;10.00;10.00;;;;;13.60;100.00;102056.31;4939080;28;45362;-83
2022/05/07 02:02:12;;;;;;;;;9.50;9.50;;;;;13.60;100.00;102053.63;4930373;28;44964;-84
2022/05/07 02:04:39;;;;;;;;;15.00;14.00;;;;;13.53;100.00;102045.09;4922688;28;45301;-83
2022/05/07 02:07:33;;;;;;;;;18.75;18.75;;;;;13.48;100.00;102054.34;4938729;28;44855;-83
2022/05/07 02:09:59;;;;;;;;;13.50;13.00;;;;;13.41;100.00;102040.50;4924440;28;44800;-84
2022/05/07 02:12:40;;;;;;;;;15.50;10.50;;;;;13.51;100.00;102049.69;4940229;28;45364;-84
2022/05/07 02:15:10;;;;;;;;;13.00;13.00;;;;;13.43;100.00;102046.59;4942524;28;45313;-83
2022/05/07 02:17:35;;;;;;;;;16.50;15.25;;;;;13.41;100.00;102051.16;4925824;28;44735;-83
2022/05/07 02:20:03;;;;;;;;;13.25;13.00;;;;;13.45;100.00;102049.19;4940428;28;45462;-84
2022/05/07 02:22:31;;;;;;;;;11.25;11.25;;;;;13.44;100.00;102051.00;4940685;28;45539;-83
2022/05/07 02:25:17;;;;;;;;;14.40;12.80;;;;;13.43;100.00;102051.06;4961323;28;44839;-83
2022/05/07 02:28:00;;;;;;;;;11.25;11.25;;;;;13.45;100.00;102051.88;4978209;28;44764;-82
2022/05/07 02:30:34;;;;;;;;;13.75;13.00;;;;;13.35;100.00;102047.06;4960400;28;45302;-82
2022/05/07 02:33:13;;;;;;;;;;;;;;;;;;;;;
2022/05/07 02:35:39;;;;;;;;;15.75;15.25;;;;;13.44;100.00;102043.00;4975543;28;71751;-82
2022/05/07 02:38:07;;;;;;;;;16.50;15.00;;;;;13.41;100.00;102047.66;4977252;28;44833;-83
2022/05/07 02:43:22;;;;;;;;;14.00;12.25;;;;;13.34;100.00;102042.66;4976459;28;44928;-83
2022/05/07 02:45:48;;;;;;;;;17.40;12.80;;;;;13.35;100.00;102048.88;4976270;28;44747;-83
2022/05/07 02:48:22;;;;;;;;;13.50;12.75;;;;;13.29;100.00;102043.84;4976848;28;44836;-83
2022/05/07 02:50:51;;;;;;;;;18.75;18.75;;;;;13.27;100.00;102045.75;4964176;28;44908;-82
2022/05/07 02:53:20;;;;;;;;;14.25;12.25;;;;;13.27;100.00;102040.44;4961622;28;47299;-85
2022/05/07 02:56:35;;;;;;;;;18.00;16.50;;;;;13.15;100.00;102041.97;4985286;28;44882;-83
2022/05/07 02:58:54;;;;;;;;;16.50;15.00;;;;;13.17;100.00;102045.41;4982501;28;44905;-84
2022/05/07 03:01:35;;;;;;;;;14.75;13.50;;;;;13.13;100.00;102047.38;4977377;28;45172;-84
2022/05/07 03:04:45;;;;;;;;;21.25;18.75;;;;;13.03;100.00;102048.84;4971325;28;46173;-84
2022/05/07 03:07:40;;;;;;;;;19.25;15.50;;;;;13.01;100.00;102048.06;4934939;28;45646;-84
2022/05/07 03:11:02;;;;;;;;;;;;;;;;;;;;;
2022/05/07 03:13:41;;;;;;;;;16.75;16.25;;;;;12.93;100.00;102042.31;4896285;29;69166;-83
2022/05/07 03:16:09;;;;;;;;;14.75;14.00;;;;;12.93;100.00;102033.44;4904403;29;45527;-83
2022/05/07 03:18:55;;;;;;;;;15.60;12.40;;;;;12.95;100.00;102035.06;4906802;29;45304;-82
2022/05/07 03:21:42;;;;;;;;;21.75;19.75;;;;;12.89;100.00;102038.06;4870598;29;44961;-81
2022/05/07 03:27:23;;;;;;;;;16.25;16.25;;;;;12.81;100.00;102037.63;4859274;29;45207;-81
2022/05/07 03:29:48;;;;;;;;;14.50;12.50;;;;;12.76;100.00;102031.69;4899346;29;45304;-82
2022/05/07 03:32:14;;;;;;;;;19.75;18.00;;;;;12.77;100.00;102041.44;4899080;29;45287;-82
2022/05/07 03:34:51;;;;;;;;;19.75;18.75;;;;;12.74;100.00;102044.25;4901903;29;44943;-82
2022/05/07 03:37:16;;;;;;;;;18.50;15.75;;;;;12.79;100.00;102039.53;4888400;29;45189;-83
2022/05/07 03:39:47;;;;;;;;;14.75;11.75;;;;;12.76;100.00;102040.56;4906819;29;45400;-82
2022/05/07 03:42:33;;;;;;;;;20.75;19.25;;;;;12.72;100.00;102038.16;4907688;29;44902;-83
2022/05/07 03:45:13;;;;;;;;;23.25;20.75;;;;;12.69;100.00;102036.53;4904953;29;45574;-84
2022/05/07 03:47:39;;;;;;;;;23.50;15.50;;;;;12.69;100.00;102044.53;4953465;28;45350;-83
2022/05/07 03:50:34;;;;;;;;;20.00;18.00;;;;;12.65;100.00;102037.63;4985819;28;44783;-83
2022/05/07 03:56:15;;;;;;;;;19.50;16.50;;;;;12.71;100.00;102034.63;4960938;28;44917;-83
2022/05/07 03:58:46;;;;;;;;;19.00;18.75;;;;;12.72;100.00;102038.16;4959730;28;45435;-82
2022/05/07 04:01:15;;;;;;;;;20.00;19.00;;;;;12.68;100.00;102037.47;4958804;28;45438;-84
2022/05/07 04:03:40;;;;;;;;;19.25;15.75;;;;;12.62;100.00;102035.16;4958864;28;45320;-83
2022/05/07 04:06:11;;;;;;;;;19.50;18.00;;;;;12.66;100.00;102025.16;4944475;28;45600;-83
2022/05/07 04:08:58;;;;;;;;;15.75;15.00;;;;;12.65;100.00;102034.09;4962011;28;45444;-83
2022/05/07 04:11:52;;;;;;;;;18.25;17.75;;;;;12.69;100.00;102038.31;4943733;28;45412;-83
2022/05/07 04:14:17;;;;;;;;;24.25;23.25;;;;;12.54;100.00;102043.56;4958487;28;45450;-83
2022/05/07 04:16:49;;;;;;;;;23.00;20.25;;;;;12.50;100.00;102035.81;4958461;28;44780;-83
2022/05/07 04:19:23;;;;;;;;;20.50;17.50;;;;;12.47;100.00;102030.63;4958018;28;45610;-83
2022/05/07 04:22:21;;;;;;;;;18.00;18.00;;;;;12.49;100.00;102034.94;4965882;28;44800;-83
2022/05/07 04:24:49;;;;;;;;;22.75;21.50;;;;;12.53;100.00;102027.66;4962807;28;44840;-84
2022/05/07 04:27:17;;;;;;;;;23.25;18.00;;;;;12.56;100.00;102030.13;4960444;28;44836;-82
2022/05/07 04:29:43;;;;;;;;;19.50;16.50;;;;;12.56;100.00;102033.66;4958260;28;46765;-83
2022/05/07 04:32:08;;;;;;;;;19.50;17.50;;;;;12.52;100.00;102028.56;4998650;28;45481;-83
2022/05/07 04:34:33;;;;;;;;;26.25;21.50;;;;;12.51;100.00;102034.84;4998822;28;45272;-83
2022/05/07 04:37:06;;;;;;;;;24.00;21.00;;;;;12.46;100.00;102036.91;4980091;28;45339;-82
2022/05/07 04:39:34;;;;;;;;;27.00;22.00;;;;;12.47;100.00;102043.94;4980391;28;46832;-82
2022/05/07 04:42:09;;;;;;;;;26.50;23.00;;;;;12.47;100.00;102033.28;4980249;28;44825;-84
2022/05/07 04:44:34;;;;;;;;;20.00;17.25;;;;;12.49;100.00;102031.41;4998548;28;45294;-81
2022/05/07 04:47:06;;;;;;;;;23.00;21.00;;;;;12.48;100.00;102038.56;4999516;28;45311;-83
2022/05/07 04:49:32;;;;;;;;;22.25;20.50;;;;;12.48;100.00;102038.56;5000090;28;45384;-84
2022/05/07 04:52:11;;;;;;;;;23.50;23.50;;;;;12.39;100.00;102038.19;4979841;28;45286;-82
2022/05/07 04:54:45;;;;;;;;;30.75;26.00;;;;;12.33;100.00;102040.25;5002152;28;45331;-83
2022/05/07 04:57:14;;;;;;;;;21.50;18.25;;;;;12.40;100.00;102043.44;5001753;28;45631;-83
2022/05/07 04:59:40;;;;;;;;;27.50;23.00;;;;;12.39;100.00;102049.72;4999586;28;45294;-82
2022/05/07 05:02:08;;;;;;;;;32.75;29.75;;;;;12.34;100.00;102035.78;4980306;28;45514;-84
2022/05/07 05:04:33;;;;;;;;;18.75;16.75;;;;;12.37;100.00;102040.91;4979780;28;45304;-83
2022/05/07 05:07:18;;;;;;;;;20.25;17.00;;;;;12.39;100.00;102041.72;4997665;28;45294;-83
2022/05/07 05:12:47;;;;;;;;;22.50;22.50;;;;;12.33;100.00;102040.25;4933659;28;45590;-83
2022/05/07 05:15:15;;;;;;;;;26.25;21.75;;;;;12.34;100.00;102047.28;4918811;28;44780;-84
2022/05/07 05:18:29;;;;;;;;;24.00;19.50;;;;;12.22;100.00;102053.25;4936429;28;45356;-83
2022/05/07 05:21:24;;;;;;;;;25.75;21.00;;;;;12.24;100.00;102046.06;4920671;28;45456;-84
2022/05/07 05:23:49;;;;;;;;;24.00;21.00;;;;;12.28;100.00;102036.97;4926990;28;45589;-82
2022/05/07 05:26:33;;;;;;;;;29.25;23.50;;;;;12.37;100.00;102048.06;4929267;28;44698;-82
2022/05/07 05:32:31;;;;;;;;;31.75;27.50;;;;;12.35;100.00;102040.16;4932199;28;45202;-83
2022/05/07 05:35:10;;;;;;;;;29.75;29.25;;;;;12.46;100.00;102040.44;4924697;28;44783;-83
2022/05/07 05:38:00;;;;;;;;;26.50;22.00;;;;;12.50;100.00;102027.81;4922448;28;44823;-84
2022/05/07 05:40:51;;;;;;;;;27.00;24.00;;;;;12.56;100.00;102028.31;4943620;28;45309;-83
2022/05/07 05:43:22;;;;;;;;;32.25;28.50;;;;;12.64;100.00;102038.56;4997067;28;45102;-83
2022/05/07 05:45:50;;;;;;;;;30.00;29.25;;;;;12.67;100.00;102046.41;4997386;28;45374;-84
2022/05/07 05:48:33;;;;;;;;;25.25;23.00;;;;;12.73;100.00;102042.56;4996858;28;45283;-83
2022/05/07 05:51:34;;;;;;;;;29.75;26.25;;;;;12.83;100.00;102041.09;4978998;28;44826;-84
2022/05/07 05:54:03;;;;;;;;;32.50;28.50;;;;;12.93;100.00;102044.13;4967272;28;46663;-85
2022/05/07 05:57:01;;;;;;;;;26.00;24.50;;;;;12.98;100.00;102056.25;4981959;28;45441;-83
2022/05/07 05:59:59;;;;;;;;;25.75;25.75;;;;;13.06;100.00;102046.00;4981490;28;44829;-84
2022/05/07 06:02:47;;;;;;;;;28.00;24.75;;;;;13.07;100.00;102036.19;4979833;28;44902;-84
2022/05/07 06:05:24;;;;;;;;;28.50;28.50;;;;;13.11;100.00;102041.28;4942915;28;46560;-85
2022/05/07 06:07:59;;;;;;;;;27.00;24.00;;;;;13.20;100.00;102039.00;4943305;28;45381;-84
2022/05/07 06:10:28;;;;;;;;;28.00;24.50;;;;;13.22;100.00;102037.16;4959835;28;45648;-84
2022/05/07 06:13:36;;;;;;;;;23.50;20.50;;;;;13.25;100.00;102043.19;4961374;28;45266;-83
2022/05/07 06:16:41;;;;;;;;;33.50;28.25;;;;;13.22;100.00;102042.50;4851495;29;45503;-84
2022/05/07 06:19:09;;;;;;;;;29.75;26.25;;;;;13.26;100.00;102038.72;4882016;29;45488;-84
2022/05/07 06:21:35;;;;;;;;;31.25;29.75;;;;;13.24;100.00;102036.09;4881345;29;44750;-84
2022/05/07 06:30:18;;;;;;;;;26.00;26.00;;;;;13.48;100.00;102038.31;4811077;29;44760;-84
2022/05/07 06:32:53;;;;;;;;;36.00;27.50;;;;;13.52;100.00;102039.84;4810389;29;44828;-85
2022/05/07 06:35:55;;;;;;;;;33.75;23.75;;;;;13.65;100.00;102042.69;4813255;29;44888;-85
2022/05/07 06:39:23;;;;;;;;;;;;;;;;;;;;;
2022/05/07 06:42:09;;;;;;;;;34.50;25.00;;;;;13.84;100.00;102049.50;4772860;29;71330;-84
2022/05/07 06:45:07;;;;;;;;;34.75;28.00;;;;;13.91;100.00;102057.16;4796230;29;44908;-84
2022/05/07 06:50:24;;;;;;;;;26.25;24.00;;;;;13.76;100.00;102066.94;4787213;29;45172;-82
2022/05/07 06:53:02;;;;;;;;;;;;;;;;;;;;;
2022/05/07 07:01:48;;;;;;;;;39.75;33.25;;;;;13.75;100.00;102081.25;4823771;29;45053;-84
2022/05/07 07:04:48;;;;;;;;;34.00;30.00;;;;;13.95;100.00;102075.56;4821826;29;44897;-84
2022/05/07 07:07:33;;;;;;;;;28.25;25.25;;;;;13.91;100.00;102086.53;4865424;29;45286;-84
2022/05/07 07:10:08;;;;;;;;;34.00;31.00;;;;;13.79;100.00;102082.78;4870466;29;44947;-84
2022/05/07 07:13:47;;;;;;;;;;;;;;;;;;;;;
2022/05/07 07:16:26;;;;;;;;;34.00;29.50;;;;;13.65;100.00;102083.59;4845687;29;73385;-83
2022/05/07 07:19:04;;;;;;;;;30.00;28.50;;;;;13.72;100.00;102084.09;4846620;29;45501;-85
2022/05/07 07:25:58;;;;;;;;;22.50;21.75;;;;;13.85;100.00;102077.06;4827979;29;45070;-83
2022/05/07 07:29:18;;;;;;;;;16.00;14.50;;;;;13.82;100.00;102078.09;4791993;29;44884;-82
2022/05/07 07:31:46;;;;;;;;;29.75;25.75;;;;;13.84;100.00;102076.22;4789693;29;46035;-84
2022/05/07 07:34:15;;;;;;;;;27.50;25.00;;;;;13.98;100.00;102078.06;4781447;29;44881;-85
2022/05/07 07:36:40;;;;;;;;;26.75;25.00;;;;;14.13;100.00;102082.50;4797254;29;47579;-85
2022/05/07 07:39:07;;;;;;;;;28.00;25.00;;;;;14.16;100.00;102092.13;4796347;29;45521;-85
2022/05/07 07:41:42;;;;;;;;;20.75;19.75;;;;;14.10;100.00;102092.50;4799390;29;44802;-86
2022/05/07 07:44:47;;;;;;;;;;;;;;;;;;;;;
2022/05/07 07:50:45;;;;;;;;;27.75;26.25;;;;;14.32;100.00;102087.59;4790286;29;44850;-84
2022/05/07 07:53:14;;;;;;;;;29.25;23.50;;;;;14.44;100.00;102090.47;4798998;29;44777;-86
2022/05/07 07:56:09;;;;;;;;;25.00;24.50;;;;;14.56;100.00;102079.91;4795013;29;44857;-85
2022/05/07 07:59:43;;;;;;;;;;;;;;;;;;;;;
2022/05/07 08:19:40;;;;;;;;;28.00;22.00;;;;;15.51;100.00;102070.25;4864862;29;45399;-86
2022/05/07 08:39:01;;;;;;;;;16.50;15.00;;;;;16.22;100.00;102064.53;4668317;30;45445;-86
2022/05/07 08:41:30;;;;;;;;;12.60;12.20;;;;;16.40;100.00;102065.94;4670782;30;44837;-85
2022/05/07 08:47:54;;;;;;;;;14.50;13.75;;;;;16.60;100.00;102052.94;4687887;30;45516;-84
2022/05/07 08:51:13;;;;;;;;;23.20;16.40;;;;;16.56;100.00;102063.00;4689709;30;46657;-84
2022/05/07 08:54:33;;;;;;;;;18.40;16.20;;;;;16.70;100.00;102054.84;4683315;30;45482;-85
2022/05/07 08:57:40;;;;;;;;;13.00;11.60;;;;;16.98;100.00;102049.34;4687413;30;45329;-85
2022/05/07 09:00:44;;;;;;;;;;;;;;;;;;;;;
2022/05/07 09:10:43;;;;;;;;;26.40;19.60;;;;;16.74;100.00;102058.19;4751710;29;45446;-85
2022/05/07 09:14:21;;;;;;;;;;;;;;;;;;;;;
2022/05/07 09:16:50;;;;;;;;;25.75;22.00;;;;;17.02;100.00;102059.75;4739459;30;76706;-86
2022/05/07 09:19:32;;;;;;;;;16.40;16.00;;;;;17.15;100.00;102052.47;4739181;29;44741;-84
2022/05/07 09:22:05;;;;;;;;;24.25;19.75;;;;;16.80;100.00;102054.22;4735204;30;45217;-86
2022/05/07 09:25:26;;;;;;;;;22.00;20.00;;;;;16.61;100.00;102063.53;4735222;29;45523;-84
2022/05/07 09:27:58;;;;;;;;;24.00;20.00;;;;;16.64;100.00;102044.56;4737485;29;45350;-85
2022/05/07 09:30:44;;;;;;;;;23.20;21.20;;;;;16.75;100.00;102045.63;4720700;30;45467;-86
2022/05/07 09:33:15;;;;;;;;;27.00;24.20;;;;;16.91;100.00;102062.34;4735598;30;44889;-88
2022/05/07 09:38:52;;;;;;;;;16.00;15.75;;;;;17.20;100.00;102050.31;4739970;29;45706;-85
2022/05/07 09:41:21;;;;;;;;;26.00;25.50;;;;;17.34;100.00;102041.22;4738995;29;45325;-85
2022/05/07 09:44:30;;;;;;;;;19.00;17.00;;;;;17.29;100.00;102048.78;4763804;29;45358;-85
2022/05/07 09:46:57;;;;;;;;;13.75;13.75;;;;;17.53;100.00;102035.34;4813101;29;44881;-84
2022/05/07 09:58:23;;;;;;;;;23.00;17.25;;;;;18.05;100.00;102031.38;4988174;28;44744;-86
2022/05/07 10:01:14;;;;;;;;;23.75;21.25;;;;;18.09;100.00;102035.56;4987015;28;45349;-85
2022/05/07 10:04:10;;;;;;;;;23.75;23.75;;;;;18.00;100.00;102035.41;4985876;28;44621;-86
2022/05/07 10:07:02;;;;;;;;;19.50;18.25;;;;;18.58;100.00;102031.66;4980942;28;45445;-85
2022/05/07 10:10:04;;;;;;;;;23.25;20.75;;;;;18.80;100.00;102033.50;4961048;28;45247;-86
2022/05/07 10:12:31;;;;;;;;;23.75;18.75;;;;;18.93;100.00;102041.44;4954970;28;47583;-85
2022/05/07 10:15:09;;;;;;;;;18.00;17.60;;;;;19.29;100.00;102036.69;4980133;28;44850;-85
2022/05/07 10:17:35;;;;;;;;;26.25;21.75;;;;;19.74;100.00;102034.72;4969027;28;44873;-85
2022/05/07 10:20:07;;;;;;;;;19.25;17.00;;;;;20.00;100.00;102021.69;4983743;28;44883;-86
2022/05/07 10:22:36;;;;;;;;;14.80;13.20;;;;;19.98;100.00;102024.53;4981108;28;47006;-85
2022/05/07 10:25:07;;;;;;;;;24.60;22.20;;;;;20.11;100.00;102021.59;4964330;28;45341;-85
2022/05/07 10:27:38;;;;;;;;;21.60;21.60;;;;;20.68;100.00;102016.63;4981751;28;44738;-85
2022/05/07 10:30:14;;;;;;;;;24.00;20.20;;;;;21.12;100.00;102023.41;4981066;28;45452;-87
2022/05/07 10:33:02;;;;;;;;;21.00;18.20;;;;;21.04;100.00;102024.13;4961853;28;46740;-86
2022/05/07 10:35:51;;;;;;;;;22.60;19.60;;;;;20.85;100.00;102026.78;4981472;28;44830;-85
2022/05/07 10:38:23;;;;;;;;;21.60;21.40;;;;;20.84;100.00;102018.81;4964541;28;44793;-85
2022/05/07 10:40:55;;;;;;;;;21.75;18.50;;;;;20.74;100.00;102026.88;4994452;28;44811;-86
2022/05/07 10:43:35;;;;;;;;;20.80;16.40;;;;;20.72;100.00;102027.03;4997628;28;45466;-87
2022/05/07 10:46:06;;;;;;;;;21.20;16.00;;;;;20.52;100.00;102019.84;4994814;28;44816;-84
2022/05/07 10:48:48;;;;;;;;;18.00;15.60;;;;;20.72;100.00;102018.94;4984758;28;44709;-86
2022/05/07 10:51:20;;;;;;;;;17.60;16.40;;;;;20.82;100.00;102013.56;4973102;28;44812;-85
2022/05/07 10:53:48;;;;;;;;;22.25;21.75;;;;;20.76;100.00;102009.56;4950944;28;47140;-85
2022/05/07 10:59:44;;;;;;;;;23.00;21.00;;;;;21.19;100.00;102011.06;4887678;29;44915;-86
2022/05/07 11:02:58;;;;;;;;;19.40;18.00;;;;;21.36;100.00;102014.09;4890513;29;44853;-86
2022/05/07 11:05:44;;;;;;;;;14.80;14.80;;;;;21.49;100.00;102004.69;4861516;29;47305;-85
2022/05/07 11:08:29;;;;;;;;;19.40;18.00;;;;;21.43;100.00;102001.72;4888189;29;44740;-89
2022/05/07 11:11:24;;;;;;;;;19.40;18.40;;;;;21.18;100.00;101990.44;4887598;29;44937;-86
2022/05/07 11:14:24;;;;;;;;;20.25;17.00;;;;;21.28;100.00;102001.25;4888957;29;45385;-86
2022/05/07 11:17:35;;;;;;;;;15.25;15.25;;;;;21.03;100.00;101991.81;4887070;29;46938;-84
2022/05/07 11:20:12;;;;;;;;;21.80;17.60;;;;;21.09;100.00;101991.28;4799532;29;44864;-84
2022/05/07 11:23:13;;;;;;;;;22.80;19.00;;;;;20.95;100.00;101994.41;4799769;29;45570;-84
2022/05/07 11:33:23;;;;;;;;;11.60;11.60;;;;;21.08;100.00;102000.41;4852919;29;44978;-85
2022/05/07 11:39:21;;;;;;;;;22.20;17.40;;;;;20.99;100.00;101988.56;4845210;29;45245;-86
2022/05/07 11:41:54;;;;;;;;;19.20;14.20;;;;;20.89;100.00;101985.00;4844450;29;45376;-85
2022/05/07 11:47:53;;;;;;;;;14.60;10.40;;;;;20.36;100.00;101992.50;4845113;29;45409;-84
2022/05/07 11:54:31;;;;;;;;;14.80;13.00;;;;;20.42;100.00;101991.94;4793144;29;46348;-86
2022/05/07 12:00:44;;;;;;;;;14.80;13.00;;;;;20.16;100.00;101989.69;4827552;29;44828;-84
2022/05/07 12:10:57;;;;;;;;;16.40;14.00;;;;;19.82;100.00;101986.34;4852362;29;44961;-85
2022/05/07 12:14:13;;;;;;;;;21.60;18.80;;;;;19.89;100.00;101984.84;4851129;29;45286;-86
2022/05/07 12:20:28;;;;;;;;;15.40;14.00;;;;;20.18;100.00;101978.75;4770518;29;45310;-85
2022/05/07 12:30:26;;;;;;;;;20.60;18.20;;;;;20.71;100.00;101978.56;4758847;29;45256;-86
2022/05/07 12:32:55;;;;;;;;;18.60;16.80;;;;;20.82;100.00;101981.13;4754016;29;45368;-84
2022/05/07 12:35:23;;;;;;;;;19.60;15.20;;;;;20.86;100.00;101977.16;4751481;29;45610;-86
2022/05/07 12:41:52;;;;;;;;;15.25;15.25;;;;;20.79;100.00;101970.59;4800368;29;45539;-86
2022/05/07 12:45:08;;;;;;;;;20.20;18.00;;;;;21.05;100.00;101966.38;4815113;29;46204;-85
2022/05/07 12:51:35;;;;;;;;;;;;;;;;;;;;;
2022/05/07 12:54:39;;;;;;;;;10.50;10.50;;;;;21.19;100.00;101980.50;4878430;29;69449;-85
2022/05/07 12:58:06;;;;;;;;;;;;;;;;;;;;;
2022/05/07 13:00:35;;;;;;;;;15.00;13.60;;;;;21.20;100.00;101974.06;4959309;28;72125;-85
2022/05/07 13:03:43;;;;;;;;;;;;;;;;;;;;;
2022/05/07 13:09:52;;;;;;;;;16.00;14.60;;;;;21.40;100.00;101953.34;4919253;28;46356;-85
2022/05/07 13:13:00;;;;;;;;;17.00;15.00;;;;;21.61;100.00;101954.00;4905937;28;45460;-85
2022/05/07 13:15:29;;;;;;;;;14.80;10.80;;;;;22.29;100.00;101949.28;4913296;28;44713;-85
2022/05/07 13:17:56;;;;;;;;;9.60;9.60;;;;;22.37;96.62;101953.94;4927258;28;45431;-85
2022/05/07 13:20:22;;;;;;;;;9.00;7.60;;;;;22.44;84.83;101959.63;4921981;28;45247;-84
2022/05/07 13:23:22;;;;;;;;;6.00;6.00;;;;;23.18;88.69;101950.47;4900188;28;45190;-86
2022/05/07 13:25:54;;;;;;;;;9.00;7.00;;;;;23.78;78.38;101954.19;4918992;28;44857;-85
2022/05/07 13:28:53;;;;;;;;;20.80;15.40;;;;;24.28;81.70;101942.59;4918947;28;44899;-85
2022/05/07 13:31:50;;;;;;;;;10.40;10.40;;;;;25.34;74.89;101939.31;4902574;28;46579;-86
2022/05/07 13:34:18;;;;;;;;;10.20;10.20;;;;;26.20;71.20;101937.81;4908802;28;44892;-84
2022/05/07 13:36:47;;;;;;;;;14.00;11.40;;;;;26.47;88.48;101931.94;4920410;28;44797;-85
2022/05/07 13:39:19;;;;;;;;;13.00;10.60;;;;;26.25;68.74;101946.28;4903145;28;45538;-85
2022/05/07 13:41:57;;;;;;;;;9.20;9.20;;;;;26.16;72.67;101929.16;4923353;28;45328;-84
2022/05/07 13:44:46;;;;;;;;;12.40;12.40;;;;;26.36;66.01;101935.88;4906504;28;44867;-86
2022/05/07 13:47:17;;;;;;;;;11.00;9.20;;;;;26.85;64.29;101922.00;4922241;28;44827;-86
2022/05/07 13:49:45;;;;;;;;;11.60;9.40;;;;;27.31;65.45;101913.81;4925702;28;44857;-86
2022/05/07 13:53:17;;;;;;;;;;;;;;;;;;;;;
2022/05/07 13:55:42;;;;;;;;;9.00;6.00;;;;;26.58;61.32;101914.31;4979668;28;72653;-86
2022/05/07 13:58:41;;;;;;;;;4.25;4.25;;;;;26.68;73.02;101912.22;4980033;28;44755;-87
2022/05/07 14:01:33;;;;;;;;;9.60;7.00;;;;;26.69;66.95;101905.75;4972706;28;44829;-86
2022/05/07 14:07:37;;;;;;;;;5.40;4.80;;;;;27.63;52.88;101909.09;4922752;28;44690;-85
2022/05/07 14:26:36;;;;;;;;;4.80;4.80;;;;;29.42;40.48;101890.22;4885218;29;45233;-86
2022/05/07 14:29:55;;;;;;;;;5.00;2.50;;;;;29.72;47.47;101881.81;4882074;29;45010;-86
2022/05/07 14:32:26;;;;;;;;;5.60;3.80;;;;;29.66;49.16;101869.75;4861756;29;44968;-85
2022/05/07 14:38:24;;;;;;;;;3.20;3.20;;;;;29.41;37.07;101874.00;4862863;29;45246;-85
2022/05/07 14:41:13;;;;;;;;;2.20;2.20;;;;;29.85;59.58;101854.50;4845918;29;45522;-86
2022/05/07 14:44:13;;;;;;;;;3.00;1.60;;;;;29.74;34.74;101871.50;4844661;29;44840;-85
2022/05/07 14:53:08;;;;;;;;;3.60;3.60;;;;;31.20;35.82;101847.25;4841168;29;45060;-87
2022/05/07 14:55:54;;;;;;;;;3.40;2.00;;;;;31.56;33.72;101851.47;4842142;29;44825;-85
2022/05/07 14:59:32;;;;;;;;;3.20;3.20;;;;;31.64;31.83;101852.06;4842489;29;44839;-85
2022/05/07 15:02:55;;;;;;;;;2.80;2.80;;;;;31.87;32.09;101842.53;4859026;29;44967;-86
2022/05/07 15:11:33;;;;;;;;;5.40;4.00;;;;;31.98;38.29;101828.09;4871655;29;44794;-85
2022/05/07 15:17:44;;;;;;;;;4.20;4.20;;;;;31.97;32.94;101829.19;4861218;29;45072;-85
2022/05/07 15:24:09;;;;;;;;;2.00;2.00;;;;;31.27;40.32;101817.06;4786694;29;44916;-84
2022/05/07 15:26:45;;;;;;;;;2.40;2.00;;;;;30.55;35.47;101818.69;4791829;29;44896;-85
2022/05/07 15:39:37;;;;;;;;;3.00;3.00;;;;;30.63;31.20;101823.97;4726049;29;44999;-86
2022/05/07 15:49:46;;;;;;;;;;;;;;;;;;;;;
2022/05/07 15:52:31;;;;;;;;;1.60;1.60;;;;;28.59;34.29;101822.50;4735058;30;68819;-86
2022/05/07 15:55:29;;;;;;;;;4.00;2.20;;;;;28.28;34.32;101825.50;4735098;30;45091;-85
2022/05/07 15:58:47;;;;;;;;;2.00;2.00;;;;;28.00;34.91;101815.31;4734970;30;44825;-85
2022/05/07 16:05:02;;;;;;;;;3.20;2.00;;;;;26.82;37.08;101815.16;4752893;29;45341;-85
2022/05/07 16:07:56;;;;;;;;;1.20;1.20;;;;;26.25;37.21;101813.63;4751030;29;45932;-85
2022/05/07 16:10:24;;;;;;;;;2.80;2.00;;;;;26.01;37.80;101806.44;4796894;29;44953;-86
2022/05/07 16:16:01;;;;;;;;;2.60;2.60;;;;;26.03;39.37;101809.00;4813364;29;44808;-85
2022/05/07 16:19:27;;;;;;;;;2.40;2.40;;;;;26.49;38.95;101814.53;4888320;28;46267;-85
2022/05/07 16:25:09;;;;;;;;;4.20;4.00;;;;;25.62;42.98;101814.59;4900180;28;45614;-87
2022/05/07 16:28:07;;;;;;;;;3.20;3.20;;;;;25.15;47.79;101803.66;4919791;28;44988;-86
2022/05/07 16:31:02;;;;;;;;;5.60;4.20;;;;;24.56;45.73;101804.66;4904330;28;46907;-85
2022/05/07 16:33:45;;;;;;;;;5.40;4.00;;;;;24.37;47.82;101807.69;4905708;28;45293;-85
2022/05/07 16:36:36;;;;;;;;;7.20;3.20;;;;;24.23;48.89;101809.16;4941854;28;44843;-86
2022/05/07 16:39:35;;;;;;;;;4.20;3.20;;;;;23.85;49.36;101810.56;4923846;28;45732;-86
2022/05/07 16:42:23;;;;;;;;;4.80;4.20;;;;;23.50;54.48;101815.09;4902644;28;45422;-86
2022/05/07 16:46:02;;;;;;;;;4.00;4.00;;;;;22.71;71.05;101817.88;4936917;28;45534;-86